Macon, Georgia
Current Conditions -  °F | °C
As of 3:53 PM on Thursday 18 Dec 2014 (Local Time) from KMCN Reporting Station
Scattered Clouds Scattered Clouds  
Wind Chill: 65°   Ceiling: Unl
Heat Index: 65°   Visibility: 10mi
Dew Point: 28°   Wind: 6mph
Humidity: 25%   Direction: 290°WNW
Pressure: 30.09"   Gusts: NA
Location:  32.84°N, 83.64°W
Report Text: KMCN 182053Z 29005KT 10SM SCT060 18/M02 A3009 RMK AO2 SLP187 T01831022 55015
Loading
Personal Weather Stations






























Interactive Weather Map New forecast layout! Learn more

10-Day Weather Forecast

Advertisements
Track Severe Weather on mobile